createdAt,value
2018-04-27T00:02:22.065Z,59.40
2018-04-27T00:04:50.440Z,59.30
2018-04-27T00:07:18.803Z,59.90
2018-04-27T00:09:47.200Z,60.70
2018-04-27T00:12:15.575Z,59.90
2018-04-27T00:14:43.964Z,60.20
2018-04-27T00:17:13.089Z,62.40
2018-04-27T00:19:41.808Z,62.50
2018-04-27T00:22:10.163Z,62.40
2018-04-27T00:24:38.523Z,62.90
2018-04-27T00:27:07.671Z,63.40
2018-04-27T00:29:36.039Z,63.40
2018-04-27T00:32:04.428Z,63.20
2018-04-27T00:34:32.788Z,63.10
2018-04-27T00:37:01.576Z,62.70
2018-04-27T00:39:29.939Z,62.60
2018-04-27T00:41:58.303Z,62.60
2018-04-27T00:44:26.688Z,61.50
2018-04-27T00:46:55.048Z,62.40
2018-04-27T00:49:24.203Z,63.40
2018-04-27T00:51:52.582Z,63.40
2018-04-27T00:54:20.979Z,63.80
2018-04-27T00:56:49.336Z,63.70
2018-04-27T00:59:17.694Z,64.10
2018-04-27T01:01:46.085Z,64.10
2018-04-27T01:04:14.443Z,64.60
2018-04-27T01:06:42.909Z,64.70
2018-04-27T01:09:11.208Z,64.80
2018-04-27T01:11:39.701Z,64.80
2018-04-27T01:14:08.052Z,65.10
2018-04-27T01:16:36.416Z,64.80
2018-04-27T01:19:05.564Z,65.20
2018-04-27T01:21:33.920Z,65.20
2018-04-27T01:24:02.304Z,65.30
2018-04-27T01:26:30.660Z,65.50
2018-04-27T01:28:59.475Z,65.50
2018-04-27T01:31:27.844Z,65.60
2018-04-27T01:33:56.204Z,66.00
2018-04-27T01:36:24.589Z,66.30
2018-04-27T01:38:52.950Z,66.30
2018-04-27T01:41:21.328Z,66.20
2018-04-27T01:43:50.456Z,66.00
2018-04-27T01:46:18.843Z,65.90
2018-04-27T01:48:47.200Z,65.90
2018-04-27T01:51:15.978Z,66.00
2018-04-27T01:53:44.336Z,66.40
2018-04-27T01:56:13.460Z,66.50
2018-04-27T01:58:41.844Z,66.40
2018-04-27T02:01:10.204Z,66.60
2018-04-27T02:03:38.585Z,66.80
2018-04-27T02:06:06.945Z,67.00
2018-04-27T02:08:36.392Z,67.10
2018-04-27T02:11:04.764Z,67.00
2018-04-27T02:13:33.120Z,67.40
2018-04-27T02:16:01.564Z,67.50
2018-04-27T02:18:29.895Z,67.50
2018-04-27T02:20:58.272Z,67.40
2018-04-27T02:23:26.628Z,67.50
2018-04-27T02:25:55.045Z,67.90
2018-04-27T02:28:23.409Z,68.00
2018-04-27T02:30:51.780Z,68.20
2018-04-27T02:33:20.162Z,68.30
2018-04-27T02:35:48.522Z,68.30
2018-04-27T02:38:16.903Z,68.00
2018-04-27T02:40:45.283Z,68.00
2018-04-27T02:43:14.194Z,68.00
2018-04-27T02:45:42.555Z,67.80
2018-04-27T02:48:10.918Z,67.60
2018-04-27T02:50:40.076Z,67.20
2018-04-27T02:53:08.444Z,67.20
2018-04-27T02:55:36.827Z,67.20
2018-04-27T02:58:05.185Z,67.00
2018-04-27T03:00:33.859Z,67.10
2018-04-27T03:03:02.520Z,66.90
2018-04-27T03:05:31.644Z,67.20
2018-04-27T03:08:00.025Z,67.20
2018-04-27T03:10:28.385Z,67.40
2018-04-27T03:12:56.764Z,67.00
2018-04-27T03:15:25.127Z,66.70
2018-04-27T03:17:54.310Z,66.40
2018-04-27T03:20:22.664Z,66.40
2018-04-27T03:22:51.020Z,66.00
2018-04-27T03:25:19.408Z,66.00
2018-04-27T03:27:47.771Z,66.30
2018-04-27T03:30:16.152Z,66.70
2018-04-27T03:32:44.512Z,67.00
2018-04-27T03:35:12.913Z,67.20
2018-04-27T03:37:41.281Z,67.50
2018-04-27T03:40:09.642Z,67.70
2018-04-27T03:42:38.039Z,67.50
2018-04-27T03:45:06.407Z,67.20
2018-04-27T03:47:34.788Z,67.20
2018-04-27T03:50:03.164Z,67.20
2018-04-27T03:52:31.535Z,67.60
2018-04-27T03:54:59.924Z,67.70
2018-04-27T03:57:28.287Z,68.30
2018-04-27T04:00:14.462Z,68.90
2018-04-27T04:03:01.472Z,70.40
2018-04-27T04:05:33.467Z,70.40
2018-04-27T04:08:01.831Z,70.30
2018-04-27T04:10:30.552Z,71.50
2018-04-27T04:12:58.916Z,72.00
2018-04-27T04:15:27.287Z,71.80
2018-04-27T04:17:55.675Z,71.80
2018-04-27T04:20:24.041Z,72.40
2018-04-27T04:22:52.420Z,72.60
2018-04-27T04:25:20.779Z,72.50
2018-04-27T04:27:50.116Z,73.60
2018-04-27T04:30:18.479Z,73.60
2018-04-27T04:32:46.840Z,74.00
2018-04-27T04:35:15.985Z,73.80
2018-04-27T04:37:44.344Z,73.70
2018-04-27T04:40:12.725Z,74.10
2018-04-27T04:42:41.083Z,74.40
2018-04-27T04:45:09.921Z,74.40
2018-04-27T04:47:38.272Z,74.30
2018-04-27T04:50:06.645Z,74.20
2018-04-27T04:52:35.154Z,74.70
2018-04-27T04:55:03.505Z,74.90
2018-04-27T04:57:31.884Z,74.80
2018-04-27T05:00:00.252Z,74.50
2018-04-27T05:02:28.843Z,74.40
2018-04-27T05:04:57.213Z,73.90
2018-04-27T05:07:25.572Z,73.60
2018-04-27T05:09:54.734Z,73.20
2018-04-27T05:12:23.117Z,73.20
2018-04-27T05:14:51.501Z,72.70
2018-04-27T05:17:19.872Z,72.60
2018-04-27T05:19:55.795Z,72.20
2018-04-27T05:22:24.163Z,71.20
2018-04-27T05:24:52.529Z,70.30
2018-04-27T05:27:20.920Z,69.90
2018-04-27T05:29:49.427Z,69.60
2018-04-27T05:32:17.806Z,69.70
2018-04-27T05:34:46.184Z,69.40
2018-04-27T05:37:14.847Z,68.40
2018-04-27T05:39:43.224Z,68.40
2018-04-27T05:42:11.588Z,68.50
2018-04-27T05:44:39.979Z,68.60
2018-04-27T05:47:08.336Z,67.40
2018-04-27T05:49:36.728Z,67.90
2018-04-27T05:52:05.100Z,67.80
2018-04-27T05:54:33.692Z,67.10
2018-04-27T05:57:02.071Z,66.90
2018-04-27T05:59:30.437Z,66.70
2018-04-27T06:01:58.831Z,67.10
2018-04-27T06:04:27.192Z,67.20
2018-04-27T06:06:55.587Z,67.20
2018-04-27T06:09:23.961Z,67.10
2018-04-27T06:11:52.467Z,66.50
2018-04-27T06:14:20.837Z,66.30
2018-04-27T06:16:49.406Z,64.80
2018-04-27T06:19:17.776Z,64.80
2018-04-27T06:21:46.161Z,63.90
2018-04-27T06:24:14.544Z,63.90
2018-04-27T06:26:42.925Z,63.70
2018-04-27T06:29:11.340Z,63.20
2018-04-27T06:31:39.723Z,62.40
2018-04-27T06:34:08.379Z,61.70
2018-04-27T06:36:36.756Z,62.20
2018-04-27T06:39:05.157Z,61.50
2018-04-27T06:41:33.560Z,61.50
2018-04-27T06:44:02.700Z,61.10
2018-04-27T06:46:31.105Z,61.10
2018-04-27T06:48:59.488Z,61.20
2018-04-27T06:51:28.299Z,59.50
2018-04-27T06:53:56.655Z,60.00
2018-04-27T06:56:25.797Z,59.10
2018-04-27T06:58:54.197Z,59.10
2018-04-27T07:01:22.589Z,58.10
2018-04-27T07:03:51.022Z,57.90
2018-04-27T07:06:20.185Z,57.60
2018-04-27T07:08:48.603Z,57.60
2018-04-27T07:11:17.744Z,56.90
2018-04-27T07:13:46.114Z,56.90
2018-04-27T07:16:14.513Z,56.50
2018-04-27T07:18:42.881Z,55.60
2018-04-27T07:21:11.264Z,54.70
2018-04-27T07:23:39.637Z,54.80
2018-04-27T07:26:08.409Z,55.10
2018-04-27T07:28:36.792Z,54.70
2018-04-27T07:31:05.165Z,55.40
2018-04-27T07:33:33.556Z,54.50
2018-04-27T07:36:02.007Z,54.10
2018-04-27T07:38:30.357Z,53.60
2018-04-27T07:40:59.499Z,52.60
2018-04-27T07:43:27.934Z,52.60
2018-04-27T07:45:57.075Z,53.60
2018-04-27T07:48:25.468Z,53.60
2018-04-27T07:50:53.872Z,53.70
2018-04-27T07:53:22.281Z,51.50
2018-04-27T07:55:50.689Z,51.70
2018-04-27T07:58:19.081Z,51.70
2018-04-27T08:00:47.876Z,51.10
2018-04-27T08:03:16.257Z,50.80
2018-04-27T08:05:44.636Z,51.40
2018-04-27T08:08:13.042Z,50.00
2018-04-27T08:10:42.177Z,48.10
2018-04-27T08:13:10.585Z,48.10
2018-04-27T08:15:38.970Z,46.50
2018-04-27T08:18:07.549Z,47.00
2018-04-27T08:20:35.945Z,46.10
2018-04-27T08:23:04.323Z,46.60
2018-04-27T08:25:35.488Z,46.80
2018-04-27T08:28:04.652Z,47.90
2018-04-27T08:30:33.084Z,47.80
2018-04-27T08:33:01.542Z,46.90
2018-04-27T08:35:29.959Z,45.70
2018-04-27T08:37:58.345Z,46.00
2018-04-27T08:40:26.737Z,45.10
2018-04-27T08:42:55.153Z,46.20
2018-04-27T08:45:24.300Z,46.10
2018-04-27T08:47:52.701Z,46.10
2018-04-27T08:50:21.156Z,45.10
2018-04-27T08:52:50.304Z,43.20
2018-04-27T08:55:19.741Z,43.70
2018-04-27T08:57:48.158Z,43.70
2018-04-27T09:00:16.584Z,42.80
2018-04-27T09:02:45.803Z,42.50
2018-04-27T09:05:14.148Z,42.50
2018-04-27T09:07:43.299Z,41.50
2018-04-27T09:10:11.862Z,41.50
2018-04-27T09:12:40.241Z,41.90
2018-04-27T09:15:08.645Z,42.40
2018-04-27T09:17:37.045Z,40.10
2018-04-27T09:20:05.424Z,40.70
2018-04-27T09:22:33.821Z,40.20
2018-04-27T09:25:02.960Z,40.30
2018-04-27T09:27:31.557Z,40.30
2018-04-27T09:29:59.932Z,38.20
2018-04-27T09:32:28.311Z,38.90
2018-04-27T09:34:56.722Z,38.80
2018-04-27T09:37:25.865Z,37.50
2018-04-27T09:39:54.263Z,37.40
2018-04-27T09:42:22.676Z,38.70
2018-04-27T09:44:51.208Z,38.70
2018-04-27T09:47:19.576Z,39.20
2018-04-27T09:49:47.980Z,37.90
2018-04-27T09:52:16.440Z,38.70
2018-04-27T09:54:44.820Z,38.20
2018-04-27T09:57:13.225Z,37.40
2018-04-27T09:59:41.604Z,38.20
2018-04-27T10:02:10.237Z,38.50
2018-04-27T10:04:39.379Z,38.50
2018-04-27T10:07:07.761Z,38.40
2018-04-27T10:09:36.157Z,36.70
2018-04-27T10:12:04.544Z,37.50
2018-04-27T10:14:34.448Z,37.60
2018-04-27T10:17:02.820Z,37.60
2018-04-27T10:19:32.096Z,37.30
2018-04-27T10:22:00.477Z,37.10
2018-04-27T10:24:28.857Z,36.80
2018-04-27T10:26:57.323Z,36.40
2018-04-27T10:29:25.706Z,37.10
2018-04-27T10:31:54.138Z,36.00
2018-04-27T10:34:23.293Z,35.90
2018-04-27T10:36:51.968Z,35.30
2018-04-27T10:39:20.357Z,35.70
2018-04-27T10:41:48.724Z,36.40
2018-04-27T10:44:17.124Z,35.60
2018-04-27T10:46:45.510Z,35.50
2018-04-27T10:49:13.913Z,35.80
2018-04-27T10:51:43.068Z,33.80
2018-04-27T10:54:11.584Z,33.80
2018-04-27T10:56:40.000Z,34.40
2018-04-27T10:59:08.390Z,34.70
2018-04-27T11:01:36.793Z,33.90
2018-04-27T11:04:05.169Z,32.70
2018-04-27T11:06:33.573Z,33.30
2018-04-27T11:09:01.959Z,35.00
2018-04-27T11:11:30.384Z,33.80
2018-04-27T11:13:58.760Z,34.10
2018-04-27T11:16:27.140Z,33.00
2018-04-27T11:18:55.549Z,34.20
2018-04-27T11:21:23.944Z,32.50
2018-04-27T11:23:53.933Z,33.00
2018-04-27T11:26:22.313Z,33.00
2018-04-27T11:28:50.735Z,33.50
2018-04-27T11:31:19.880Z,34.00
2018-04-27T11:33:48.275Z,33.90
2018-04-27T11:36:16.673Z,33.80
2018-04-27T11:38:45.054Z,34.20
2018-04-27T11:41:13.542Z,33.20
2018-04-27T11:43:41.853Z,33.00
2018-04-27T11:46:10.452Z,32.10
2018-04-27T11:48:38.836Z,32.90
2018-04-27T11:51:07.221Z,33.20
2018-04-27T11:53:35.646Z,31.60
2018-04-27T11:56:04.788Z,31.50
2018-04-27T11:58:33.205Z,31.50
2018-04-27T12:01:01.636Z,31.90
2018-04-27T12:03:30.177Z,32.90
2018-04-27T12:05:58.560Z,33.30
2018-04-27T12:08:27.704Z,32.30
2018-04-27T12:10:56.104Z,32.30
2018-04-27T12:13:24.484Z,32.90
2018-04-27T12:15:52.905Z,32.80
2018-04-27T12:18:21.308Z,33.40
2018-04-27T12:20:49.732Z,33.80
2018-04-27T12:23:18.111Z,34.50
2018-04-27T12:25:46.492Z,34.20
2018-04-27T12:28:14.895Z,34.60
2018-04-27T12:30:44.033Z,33.40
2018-04-27T12:33:12.432Z,33.30
2018-04-27T12:35:40.806Z,33.90
2018-04-27T12:38:09.225Z,34.40
2018-04-27T12:40:38.364Z,33.60
2018-04-27T12:43:06.737Z,33.60
2018-04-27T12:45:35.137Z,34.50
2018-04-27T12:48:03.517Z,33.50
2018-04-27T12:50:31.927Z,34.00
2018-04-27T12:53:01.073Z,33.40
2018-04-27T12:55:29.750Z,33.30
2018-04-27T12:57:58.169Z,33.60
2018-04-27T13:00:26.549Z,33.90
2018-04-27T13:02:55.006Z,34.50
2018-04-27T13:05:23.424Z,33.80
2018-04-27T13:07:51.866Z,34.00
2018-04-27T13:10:20.238Z,33.70
2018-04-27T13:12:48.813Z,33.20
2018-04-27T13:15:17.192Z,33.20
2018-04-27T13:17:45.645Z,33.60
2018-04-27T13:20:14.896Z,33.50
2018-04-27T13:22:43.281Z,33.50
2018-04-27T13:25:11.676Z,33.40
2018-04-27T13:27:40.048Z,33.70
2018-04-27T13:30:08.591Z,33.60
2018-04-27T13:32:36.966Z,33.80
2018-04-27T13:35:05.338Z,33.70
2018-04-27T13:37:34.554Z,34.30
2018-04-27T13:40:02.936Z,33.40
2018-04-27T13:42:31.341Z,33.50
2018-04-27T13:44:59.708Z,34.10
2018-04-27T13:47:28.361Z,33.50
2018-04-27T13:49:56.737Z,32.00
2018-04-27T13:52:25.108Z,32.50
2018-04-27T13:54:53.516Z,33.40
2018-04-27T13:57:21.989Z,33.00
2018-04-27T13:59:51.268Z,34.50
2018-04-27T14:02:19.644Z,33.70
2018-04-27T14:04:48.021Z,33.80
2018-04-27T14:07:16.465Z,34.20
2018-04-27T14:09:44.910Z,34.00
2018-04-27T14:12:13.477Z,34.80
2018-04-27T14:14:41.841Z,33.80
2018-04-27T14:17:10.255Z,32.90
2018-04-27T14:19:38.650Z,34.00
2018-04-27T14:22:07.031Z,34.80
2018-04-27T14:24:36.940Z,35.40
2018-04-27T14:27:05.353Z,35.40
2018-04-27T14:29:34.546Z,35.10
2018-04-27T14:32:02.929Z,35.00
2018-04-27T14:34:32.064Z,35.60
2018-04-27T14:37:00.504Z,35.60
2018-04-27T14:39:29.646Z,35.30
2018-04-27T14:41:58.052Z,35.20
2018-04-27T14:44:26.421Z,35.40
2018-04-27T14:46:55.072Z,35.40
2018-04-27T14:49:23.457Z,36.30
2018-04-27T14:51:51.825Z,35.80
2018-04-27T14:54:20.217Z,35.70
2018-04-27T14:56:48.701Z,35.90
2018-04-27T14:59:17.107Z,36.20
2018-04-27T15:01:46.249Z,36.40
2018-04-27T15:04:14.749Z,36.40
2018-04-27T15:06:43.118Z,35.80
2018-04-27T15:09:11.481Z,36.10
2018-04-27T15:11:39.996Z,35.90
2018-04-27T15:14:08.373Z,35.70
2018-04-27T15:16:36.781Z,36.60
2018-04-27T15:19:06.675Z,36.80
2018-04-27T15:21:35.343Z,36.80
2018-04-27T15:24:03.784Z,35.90
2018-04-27T15:26:32.117Z,36.00
2018-04-27T15:29:00.509Z,36.60
2018-04-27T15:31:28.884Z,36.80
2018-04-27T15:33:57.285Z,36.60
2018-04-27T15:36:25.662Z,36.60
2018-04-27T15:38:54.129Z,36.80
2018-04-27T15:41:22.683Z,36.50
2018-04-27T15:43:51.241Z,36.60
2018-04-27T15:46:19.660Z,37.20
2018-04-27T15:48:48.056Z,37.10
2018-04-27T15:51:17.956Z,37.30
2018-04-27T15:53:46.337Z,37.30
2018-04-27T15:56:14.758Z,37.20
2018-04-27T15:58:43.900Z,37.50
2018-04-27T16:01:12.377Z,37.50
2018-04-27T16:03:41.616Z,37.80
2018-04-27T16:06:10.772Z,38.00
2018-04-27T16:08:39.199Z,37.90
2018-04-27T16:11:08.344Z,38.40
2018-04-27T16:16:36.221Z,38.50
2018-04-27T16:19:05.476Z,38.50
2018-04-27T16:21:34.609Z,39.10
2018-04-27T16:24:03.194Z,39.00
2018-04-27T16:26:32.364Z,39.00
2018-04-27T16:29:01.514Z,39.00
2018-04-27T16:31:29.921Z,38.90
2018-04-27T16:33:58.304Z,39.40
2018-04-27T16:36:27.475Z,39.60
2018-04-27T16:38:55.853Z,39.50
2018-04-27T16:41:24.405Z,39.90
2018-04-27T16:43:52.781Z,39.30
2018-04-27T16:46:21.164Z,40.10
2018-04-27T16:48:50.021Z,40.50
2018-04-27T16:51:18.412Z,40.10
2018-04-27T16:53:46.808Z,39.90
2018-04-27T16:56:15.185Z,40.30
2018-04-27T16:58:43.880Z,40.30
2018-04-27T17:01:12.302Z,40.90
2018-04-27T17:03:40.786Z,41.00
2018-04-27T17:06:09.194Z,40.90
2018-04-27T17:08:37.572Z,41.30
2018-04-27T17:11:06.060Z,40.70
2018-04-27T17:13:34.430Z,40.90
2018-04-27T17:16:04.455Z,41.60
2018-04-27T17:18:32.853Z,41.50
2018-04-27T17:21:01.248Z,41.60
2018-04-27T17:23:29.653Z,41.70
2018-04-27T17:25:58.803Z,42.00
2018-04-27T17:28:27.240Z,42.40
2018-04-27T17:30:56.385Z,42.60
2018-04-27T17:33:25.201Z,42.60
2018-04-27T17:35:53.592Z,42.90
2018-04-27T17:38:22.754Z,43.20
2018-04-27T17:40:51.168Z,43.20
2018-04-27T17:43:20.370Z,43.70
2018-04-27T17:45:48.854Z,43.70
2018-04-27T17:48:17.245Z,43.80
2018-04-27T17:50:45.962Z,44.20
2018-04-27T17:53:14.336Z,44.20
2018-04-27T17:55:42.833Z,44.80
2018-04-27T17:58:11.188Z,45.10
2018-04-27T18:00:39.598Z,45.20
2018-04-27T18:03:13.935Z,45.40
2018-04-27T18:05:43.998Z,45.60
2018-04-27T18:08:13.266Z,45.70
2018-04-27T18:10:42.744Z,46.10
2018-04-27T18:13:12.534Z,46.70
2018-04-27T18:15:41.757Z,46.70
2018-04-27T18:18:10.158Z,46.90
2018-04-27T18:20:39.316Z,47.30
2018-04-27T18:23:07.756Z,47.30
2018-04-27T18:25:36.190Z,47.60
2018-04-27T18:28:04.549Z,47.60
2018-04-27T18:30:32.960Z,47.70
2018-04-27T18:33:01.596Z,47.90
2018-04-27T18:35:30.017Z,48.20
2018-04-27T18:37:58.424Z,48.40
2018-04-27T18:40:29.721Z,48.60
2018-04-27T18:42:58.523Z,48.50
2018-04-27T18:45:28.297Z,48.80
2018-04-27T18:47:56.745Z,48.90
2018-04-27T18:50:29.589Z,49.40
2018-04-27T18:52:58.837Z,49.30
2018-04-27T18:55:27.924Z,49.60
2018-04-27T18:57:57.612Z,49.50
2018-04-27T19:00:43.879Z,49.90
2018-04-27T19:03:13.048Z,50.00
2018-04-27T19:05:43.912Z,50.40
2018-04-27T19:08:12.919Z,50.40
2018-04-27T19:10:41.607Z,50.50
2018-04-27T19:13:13.508Z,51.10
2018-04-27T19:15:43.243Z,51.30
2018-04-27T19:18:13.164Z,51.30
2018-04-27T19:20:42.879Z,51.20
2018-04-27T19:23:30.109Z,51.50
2018-04-27T19:26:01.006Z,51.50
2018-04-27T19:28:31.133Z,51.60
2018-04-27T19:31:01.226Z,51.90
2018-04-27T19:33:33.380Z,52.30
2018-04-27T19:36:01.940Z,52.90
2018-04-27T19:38:30.998Z,53.20
2018-04-27T19:40:59.402Z,52.70
2018-04-27T19:43:28.005Z,52.60
2018-04-27T19:45:56.878Z,53.00
2018-04-27T19:48:25.431Z,53.10
2018-04-27T19:50:55.477Z,53.10
2018-04-27T19:53:24.368Z,53.30
2018-04-27T19:55:56.944Z,53.40
2018-04-27T19:58:26.143Z,53.70
2018-04-27T20:00:55.303Z,53.80
2018-04-27T20:03:23.896Z,54.00
2018-04-27T20:05:52.333Z,54.20
2018-04-27T20:08:23.728Z,54.30
2018-04-27T20:10:53.042Z,54.30
2018-04-27T20:13:23.826Z,54.30
2018-04-27T20:15:56.667Z,54.20
2018-04-27T20:18:30.589Z,54.50
2018-04-27T20:20:59.363Z,54.50
2018-04-27T20:23:35.709Z,54.70
2018-04-27T20:26:05.868Z,54.70
2018-04-27T20:28:42.001Z,54.90
2018-04-27T20:31:10.488Z,55.00
2018-04-27T20:33:39.140Z,55.30
2018-04-27T20:36:08.556Z,55.30
2018-04-27T20:38:36.928Z,55.20
2018-04-27T20:41:13.089Z,55.20
2018-04-27T20:43:42.724Z,55.40
2018-04-27T20:46:11.240Z,55.60
2018-04-27T20:48:40.395Z,55.50
2018-04-27T20:51:09.521Z,55.50
2018-04-27T20:56:44.650Z,55.80
2018-04-27T20:59:15.632Z,55.90
2018-04-27T21:01:44.060Z,56.30
2018-04-27T21:04:12.494Z,56.40
2018-04-27T21:06:41.657Z,56.60
2018-04-27T21:09:10.789Z,56.50
2018-04-27T21:11:40.838Z,56.30
2018-04-27T21:14:09.271Z,56.20
2018-04-27T21:16:39.128Z,56.60
2018-04-27T21:19:07.953Z,56.50
2018-04-27T21:21:36.408Z,56.40
2018-04-27T21:24:05.905Z,56.90
2018-04-27T21:26:50.220Z,57.10
2018-04-27T21:29:21.356Z,57.00
2018-04-27T21:31:50.536Z,57.00
2018-04-27T21:34:18.928Z,57.00
2018-04-27T21:36:51.224Z,57.20
2018-04-27T21:39:28.202Z,57.60
2018-04-27T21:42:00.474Z,57.60
2018-04-27T21:44:30.402Z,57.80
2018-04-27T21:50:13.509Z,58.10
2018-04-27T21:52:47.487Z,59.10
2018-04-27T21:55:15.901Z,58.50
2018-04-27T22:00:43.493Z,58.90
2018-04-27T22:03:16.849Z,59.60
2018-04-27T22:05:51.861Z,60.20
2018-04-27T22:08:46.283Z,59.60
2018-04-27T22:14:37.381Z,60.00
2018-04-27T22:17:13.440Z,60.00
2018-04-27T22:19:42.124Z,60.10
2018-04-27T22:22:13.176Z,60.40
2018-04-27T22:27:59.765Z,60.90
2018-04-27T22:33:33.035Z,61.70
2018-04-27T22:36:14.248Z,61.70
2018-04-27T22:38:51.925Z,61.70
2018-04-27T22:41:20.329Z,61.70
2018-04-27T22:43:57.173Z,61.90
2018-04-27T22:46:25.647Z,61.90
2018-04-27T22:49:07.058Z,62.10
2018-04-27T22:51:39.692Z,62.10
2018-04-27T22:57:32.109Z,62.30
2018-04-27T23:00:07.601Z,63.20
2018-04-27T23:02:36.537Z,63.20
2018-04-27T23:05:14.920Z,63.50
2018-04-27T23:07:49.892Z,64.50
2018-04-27T23:10:18.264Z,64.50
2018-04-27T23:13:06.340Z,64.80
2018-04-27T23:15:44.668Z,64.70
2018-04-27T23:18:17.849Z,65.70
2018-04-27T23:21:03.301Z,65.20
2018-04-27T23:23:31.904Z,65.20
2018-04-27T23:26:00.584Z,65.20
2018-04-27T23:28:29.008Z,65.70
2018-04-27T23:30:58.069Z,65.60
2018-04-27T23:33:26.440Z,65.50
2018-04-27T23:35:55.556Z,66.50
2018-04-27T23:38:23.932Z,66.00
2018-04-27T23:40:55.363Z,66.70
2018-04-27T23:43:24.604Z,66.80
2018-04-27T23:45:52.972Z,66.80
2018-04-27T23:48:21.369Z,67.40
2018-04-27T23:50:50.544Z,66.60
2018-04-27T23:53:21.757Z,67.20
2018-04-27T23:55:50.152Z,67.20
2018-04-27T23:58:22.920Z,67.20
